Погода Рахимьяр-Ханна неделю

Пенджаб, Пакистан

24 - 30 июля
  • 24июля
    Сегодня
    +30°
    +42°
    Практически безоблачно
    ВремяПогодаТемператураВлажностьДавлениеВетер, м/сВероятность осадков
    02:00Ясно и безоблачно+33°C68 %739 мм3.8 м/с2 %
    05:00Ясно и безоблачно+31°C71 %739 мм3.6 м/с2 %
    08:00Ясно и безоблачно+33°C65 %739 мм2.7 м/с2 %
    11:00Ясно и безоблачно+37°C48 %739 мм3.7 м/с2 %
    14:00Практически безоблачно+40°C38 %737 мм3.8 м/с2 %
    17:00Ясно и безоблачно+41°C34 %735 мм3.7 м/с2 %
    20:00Ясно и безоблачно+38°C40 %736 мм3.9 м/с2 %
    23:00Ясно и безоблачно+36°C47 %737 мм5.3 м/с2 %
  • 25июля
    Четверг
    +31°
    +41°
    Ясно и безоблачно
    ВремяПогодаТемператураВлажностьДавлениеВетер, м/сВероятность осадков
    02:00Ясно и безоблачно+33°C58 %737 мм5.9 м/с2 %
    05:00Ясно и безоблачно+31°C67 %737 мм5.0 м/с2 %
    08:00Ясно и безоблачно+32°C69 %738 мм4.3 м/с2 %
    11:00Ясно и безоблачно+36°C50 %738 мм3.9 м/с2 %
    14:00Ясно и безоблачно+40°C37 %737 мм3.0 м/с2 %
    17:00Ясно и безоблачно+41°C33 %735 мм2.1 м/с2 %
    20:00Ясно и безоблачно+36°C42 %736 мм1.8 м/с8 %
    23:00Ясно и безоблачно+35°C41 %737 мм3.3 м/с2 %
  • 26июля
    Пятница
    +30°
    +43°
    Ясно и безоблачно
    ВремяПогодаТемператураВлажностьДавлениеВетер, м/сВероятность осадков
    02:00Ясно и безоблачно+34°C51 %737 мм6.0 м/с2 %
    05:00Ясно и безоблачно+32°C58 %738 мм4.8 м/с2 %
    08:00Ясно и безоблачно+34°C56 %739 мм4.2 м/с2 %
    11:00Ясно и безоблачно+39°C41 %739 мм3.5 м/с2 %
    14:00Ясно и безоблачно+43°C33 %738 мм3.2 м/с2 %
    17:00Ясно и безоблачно+44°C33 %736 мм4.0 м/с2 %
    20:00Ясно и безоблачно+34°C63 %738 мм5.2 м/с5 %
    23:00Практически безоблачно+34°C55 %738 мм6.0 м/с2 %
  • 27июля
    Суббота
    +32°
    +43°
    Ясно и безоблачно
    ВремяПогодаТемператураВлажностьДавлениеВетер, м/сВероятность осадков
    02:00Ясно и безоблачно+33°C56 %738 мм5.4 м/с2 %
    05:00Практически безоблачно+32°C62 %739 мм4.0 м/с2 %
    08:00Ясно и безоблачно+33°C59 %740 мм3.9 м/с6 %
    11:00Ясно и безоблачно+39°C42 %740 мм3.4 м/с4 %
    14:00Ясно и безоблачно+42°C35 %738 мм3.2 м/с3 %
    17:00Ясно и безоблачно+42°C33 %737 мм2.5 м/с5 %
    20:00Практически безоблачно+38°C40 %738 мм2.5 м/с4 %
    23:00Ясно и безоблачно+36°C42 %739 мм4.8 м/с2 %
  • 28июля
    Воскресенье
    +32°
    +44°
    Облачно с прояснениями
    ВремяПогодаТемператураВлажностьДавлениеВетер, м/сВероятность осадков
    02:00Небольшая облачность+34°C47 %738 мм4.4 м/с3 %
    05:00Ясно и безоблачно+33°C57 %739 мм4.5 м/с4 %
    08:00Практически безоблачно+34°C56 %740 мм3.5 м/с4 %
    11:00Небольшая облачность+39°C40 %740 мм3.7 м/с4 %
    14:00Облачно с прояснениями+42°C33 %738 мм2.9 м/с4 %
    17:00Облачно с прояснениями+43°C31 %737 мм1.5 м/с10 %
    20:00Облачно с прояснениями+40°C37 %738 мм5.4 м/с13 %
    23:00Облачно с прояснениями+36°C49 %739 мм5.1 м/с10 %
Мы используем cookies
Соглашаюсь